Time;durP1;ratioP1;P1;durP2;ratioP2;P2;SDS_P1;SDS_P2;PMS_P1;PMS_P2;Temp;Humidity;BMP_temperature;BMP_pressure;BME280_temperature;BME280_humidity;BME280_pressure;Samples;Min_cycle;Max_cycle;Signal;HPM_P1;HPM_P2
2023/05/28 00:00:01;;;;;;;4.15;1.52;;;11.60;99.90;;;;;;4964965;28;20047;-64
2023/05/28 00:02:39;;;;;;;5.32;1.85;;;11.60;99.90;;;;;;4967384;28;20066;-63
2023/05/28 00:05:07;;;;;;;3.42;1.80;;;11.60;99.90;;;;;;4962153;28;20109;-62
2023/05/28 00:07:34;;;;;;;2.75;1.50;;;11.60;99.90;;;;;;4978212;28;20059;-64
2023/05/28 00:10:01;;;;;;;6.25;2.28;;;11.60;99.90;;;;;;4965046;28;20106;-66
2023/05/28 00:12:28;;;;;;;4.35;1.35;;;11.60;99.90;;;;;;4964545;28;20737;-61
2023/05/28 00:14:55;;;;;;;5.10;2.58;;;11.50;99.90;;;;;;4964663;28;20069;-64
2023/05/28 00:17:22;;;;;;;6.07;2.10;;;11.50;99.90;;;;;;4965163;28;20066;-61
2023/05/28 00:19:49;;;;;;;8.00;2.25;;;11.50;99.90;;;;;;4962211;28;20162;-69
2023/05/28 00:22:16;;;;;;;4.30;2.22;;;11.60;99.90;;;;;;4964393;28;20101;-63
2023/05/28 00:24:43;;;;;;;3.28;1.40;;;11.50;99.90;;;;;;4967195;28;20836;-65
2023/05/28 00:27:10;;;;;;;6.70;1.70;;;11.50;99.90;;;;;;4966684;28;20050;-60
2023/05/28 00:29:37;;;;;;;3.38;1.15;;;11.50;99.90;;;;;;4963686;28;20090;-62
2023/05/28 00:32:05;;;;;;;3.42;1.13;;;11.50;99.90;;;;;;4961481;28;20051;-64
2023/05/28 00:34:32;;;;;;;4.15;1.60;;;11.50;99.90;;;;;;4963987;28;20051;-60
2023/05/28 00:36:59;;;;;;;6.57;1.70;;;11.50;99.90;;;;;;4963876;28;20055;-63
2023/05/28 00:39:25;;;;;;;4.22;1.75;;;11.50;99.90;;;;;;4980333;28;20140;-68
2023/05/28 00:42:02;;;;;;;4.90;1.73;;;11.50;99.90;;;;;;4980189;28;20047;-63
2023/05/28 00:44:32;;;;;;;2.97;1.33;;;11.50;99.90;;;;;;4963284;28;20049;-61
2023/05/28 00:47:00;;;;;;;5.10;1.98;;;11.50;99.90;;;;;;4964711;28;20130;-66
2023/05/28 00:49:28;;;;;;;5.30;1.55;;;11.50;99.90;;;;;;4963855;28;20063;-70
2023/05/28 00:51:56;;;;;;;4.13;1.40;;;11.40;99.90;;;;;;4967610;28;20587;-65
2023/05/28 00:54:26;;;;;;;5.60;1.83;;;11.40;99.90;;;;;;4966153;28;20047;-63
2023/05/28 00:56:54;;;;;;;4.90;1.45;;;11.40;99.90;;;;;;4966191;28;20088;-69
2023/05/28 00:59:24;;;;;;;3.72;1.88;;;11.40;99.90;;;;;;4965628;28;20453;-63
2023/05/28 01:01:51;;;;;;;1.92;1.40;;;11.40;99.90;;;;;;4980796;28;20501;-65
2023/05/28 01:04:18;;;;;;;3.75;2.13;;;11.40;99.90;;;;;;4977996;28;20540;-65
2023/05/28 01:06:45;;;;;;;4.65;1.80;;;11.40;99.90;;;;;;4963909;28;20059;-69
2023/05/28 01:09:13;;;;;;;2.20;1.00;;;11.40;99.90;;;;;;4965558;28;20470;-64
2023/05/28 01:11:43;;;;;;;3.22;1.52;;;11.40;99.90;;;;;;4966594;28;20046;-64
2023/05/28 01:14:14;;;;;;;4.82;1.33;;;11.40;99.90;;;;;;4954457;28;20070;-61
2023/05/28 01:16:41;;;;;;;3.70;1.48;;;11.40;99.90;;;;;;4964989;28;20054;-66
2023/05/28 01:19:09;;;;;;;3.00;1.63;;;11.40;99.90;;;;;;4963359;28;20448;-66
2023/05/28 01:21:41;;;;;;;4.95;1.60;;;11.30;99.90;;;;;;4962978;28;20047;-65
2023/05/28 01:24:10;;;;;;;6.60;1.77;;;11.30;99.90;;;;;;4962220;28;20105;-60
2023/05/28 01:26:37;;;;;;;4.38;1.67;;;11.30;99.90;;;;;;4966950;28;20058;-62
2023/05/28 01:29:17;;;;;;;4.78;1.77;;;11.30;99.90;;;;;;4962031;28;20062;-66
2023/05/28 01:31:45;;;;;;;3.50;2.28;;;11.20;99.90;;;;;;4962975;28;20065;-63
2023/05/28 01:34:13;;;;;;;4.25;2.08;;;11.30;99.90;;;;;;4960156;28;20071;-66
2023/05/28 01:36:57;;;;;;;6.25;1.55;;;11.20;99.90;;;;;;4964481;28;20839;-69
2023/05/28 01:39:27;;;;;;;3.83;1.55;;;11.20;99.90;;;;;;4962196;28;21314;-70
2023/05/28 01:41:55;;;;;;;6.35;2.53;;;11.20;99.90;;;;;;4960779;28;20421;-63
2023/05/28 01:44:23;;;;;;;4.30;1.90;;;11.10;99.90;;;;;;4963277;28;20089;-64
2023/05/28 01:46:53;;;;;;;7.60;2.00;;;11.10;99.90;;;;;;4978994;28;20416;-65
2023/05/28 01:49:22;;;;;;;8.00;2.67;;;11.10;99.90;;;;;;4962025;28;20051;-60
2023/05/28 01:51:51;;;;;;;4.43;1.48;;;11.00;99.90;;;;;;4965666;28;20411;-62
2023/05/28 01:54:20;;;;;;;5.18;2.15;;;11.00;99.90;;;;;;4976518;28;20075;-62
2023/05/28 01:56:47;;;;;;;8.13;2.58;;;11.00;99.90;;;;;;4964284;28;20054;-63
2023/05/28 01:59:14;;;;;;;7.28;3.15;;;10.90;99.90;;;;;;4962186;28;20054;-64
2023/05/28 02:01:41;;;;;;;7.03;2.00;;;11.00;99.90;;;;;;4961239;28;20122;-65
2023/05/28 02:04:11;;;;;;;6.47;2.53;;;11.00;99.90;;;;;;4961673;28;20047;-66
2023/05/28 02:06:40;;;;;;;9.38;2.25;;;10.90;99.90;;;;;;4965559;28;20050;-66
2023/05/28 02:09:07;;;;;;;10.20;2.00;;;10.90;99.90;;;;;;4962534;28;20054;-63
2023/05/28 02:11:34;;;;;;;8.57;3.15;;;10.90;99.90;;;;;;4965660;28;20113;-60
2023/05/28 02:14:01;;;;;;;3.78;1.73;;;10.80;99.90;;;;;;4978739;28;20042;-61
2023/05/28 02:16:29;;;;;;;6.00;1.90;;;10.80;99.90;;;;;;4961493;28;20756;-66
2023/05/28 02:18:58;;;;;;;4.50;1.90;;;10.80;99.90;;;;;;4965597;28;20050;-64
2023/05/28 02:21:26;;;;;;;3.05;1.60;;;10.80;99.90;;;;;;4969154;28;20062;-67
2023/05/28 02:23:52;;;;;;;5.45;2.25;;;10.80;99.90;;;;;;4975627;28;20555;-62
2023/05/28 02:26:20;;;;;;;8.00;2.03;;;10.80;99.90;;;;;;4978388;28;20057;-65
2023/05/28 02:28:47;;;;;;;4.32;1.90;;;10.80;99.90;;;;;;4965913;28;20050;-62
2023/05/28 02:31:15;;;;;;;4.18;1.75;;;10.80;99.90;;;;;;4979366;28;20055;-64
2023/05/28 02:33:44;;;;;;;6.13;2.85;;;10.80;99.90;;;;;;4978566;28;20561;-68
2023/05/28 02:36:14;;;;;;;4.22;1.73;;;10.80;99.90;;;;;;4961565;28;20053;-63
2023/05/28 02:38:42;;;;;;;3.00;1.83;;;10.80;99.90;;;;;;4964935;28;20069;-62
2023/05/28 02:41:10;;;;;;;8.45;3.38;;;10.80;99.90;;;;;;4964874;28;20043;-64
2023/05/28 02:43:42;;;;;;;5.22;2.40;;;10.80;99.90;;;;;;4961041;28;20062;-61
2023/05/28 02:46:09;;;;;;;4.65;2.05;;;10.80;99.90;;;;;;4955506;28;20057;-60
2023/05/28 02:48:37;;;;;;;11.25;2.30;;;10.80;99.90;;;;;;4978937;28;20066;-61
2023/05/28 02:51:05;;;;;;;8.07;1.63;;;10.80;99.90;;;;;;4960971;28;20611;-62
2023/05/28 02:54:05;;;;;;;5.13;2.55;;;10.80;99.90;;;;;;4938786;28;20070;-67
2023/05/28 02:56:33;;;;;;;8.70;2.75;;;10.80;99.90;;;;;;4960750;28;20065;-63
2023/05/28 02:59:00;;;;;;;7.88;2.92;;;10.80;99.90;;;;;;4978887;28;20695;-65
2023/05/28 03:01:27;;;;;;;7.72;2.80;;;10.80;99.90;;;;;;4961416;28;20086;-68
2023/05/28 03:03:55;;;;;;;9.43;3.08;;;10.80;99.90;;;;;;4959309;28;20058;-62
2023/05/28 03:06:22;;;;;;;3.42;2.17;;;10.80;99.90;;;;;;4978087;28;20058;-66
2023/05/28 03:08:53;;;;;;;8.10;2.60;;;10.80;99.90;;;;;;4965843;28;20077;-63
2023/05/28 03:11:21;;;;;;;9.38;3.28;;;10.80;99.90;;;;;;4981946;28;20670;-61
2023/05/28 03:13:49;;;;;;;8.57;2.40;;;10.80;99.90;;;;;;4966137;28;20505;-64
2023/05/28 03:16:17;;;;;;;5.65;3.78;;;10.80;99.90;;;;;;4954289;28;20059;-61
2023/05/28 03:18:44;;;;;;;7.15;2.50;;;10.90;99.90;;;;;;4969047;28;20495;-70
2023/05/28 03:21:11;;;;;;;8.75;2.42;;;10.80;99.90;;;;;;4981131;28;20050;-67
2023/05/28 03:23:39;;;;;;;9.07;3.63;;;10.90;99.90;;;;;;4972678;28;20061;-65
2023/05/28 03:26:26;;;;;;;7.70;2.40;;;10.80;99.90;;;;;;4964697;28;20497;-64
2023/05/28 03:28:54;;;;;;;5.82;2.38;;;10.90;99.90;;;;;;4980858;28;20050;-69
2023/05/28 03:31:32;;;;;;;9.48;3.28;;;10.90;99.90;;;;;;4966178;28;20047;-64
2023/05/28 03:34:00;;;;;;;10.45;3.65;;;10.90;99.90;;;;;;4981108;28;20157;-67
2023/05/28 03:36:29;;;;;;;10.45;2.53;;;10.90;99.90;;;;;;4963123;28;20550;-68
2023/05/28 03:38:56;;;;;;;9.05;2.95;;;10.90;99.90;;;;;;4967752;28;20113;-66
2023/05/28 03:41:25;;;;;;;9.30;3.40;;;10.90;99.90;;;;;;4967065;28;20055;-63
2023/05/28 03:43:53;;;;;;;8.90;3.20;;;11.00;99.90;;;;;;4966055;28;20058;-65
2023/05/28 03:46:20;;;;;;;10.38;2.45;;;11.00;99.90;;;;;;4980430;28;20073;-62
2023/05/28 03:48:47;;;;;;;9.88;3.45;;;11.00;99.90;;;;;;4952888;28;20054;-65
2023/05/28 03:51:14;;;;;;;9.10;3.40;;;11.00;99.90;;;;;;4978396;28;20745;-63
2023/05/28 03:53:41;;;;;;;9.77;3.33;;;11.00;99.90;;;;;;4964279;28;20057;-67
2023/05/28 03:56:08;;;;;;;8.93;3.20;;;11.10;99.90;;;;;;4964767;28;20055;-68
2023/05/28 03:58:35;;;;;;;8.75;3.30;;;11.10;99.90;;;;;;4967554;28;20137;-66
2023/05/28 04:01:02;;;;;;;13.38;3.53;;;11.10;99.90;;;;;;4964332;28;20042;-62
2023/05/28 04:03:29;;;;;;;12.27;2.35;;;11.10;99.90;;;;;;4965080;28;20056;-64
2023/05/28 04:05:56;;;;;;;6.55;2.92;;;11.20;99.90;;;;;;4968432;28;20054;-65
2023/05/28 04:08:23;;;;;;;10.57;3.35;;;11.20;99.90;;;;;;4963737;28;20070;-64
2023/05/28 04:10:50;;;;;;;11.07;3.42;;;11.20;99.90;;;;;;4981619;28;20054;-64
2023/05/28 04:13:17;;;;;;;8.55;4.72;;;11.30;99.90;;;;;;4966135;28;20054;-68
2023/05/28 04:15:44;;;;;;;8.73;3.40;;;11.30;99.90;;;;;;4966112;28;20055;-66
2023/05/28 04:18:11;;;;;;;8.65;3.33;;;11.30;99.90;;;;;;4962992;28;20442;-67
2023/05/28 04:20:38;;;;;;;6.57;3.17;;;11.40;99.90;;;;;;4969694;28;20137;-64
2023/05/28 04:23:06;;;;;;;15.07;5.22;;;11.50;99.90;;;;;;4973653;28;20084;-60
2023/05/28 04:25:33;;;;;;;12.10;4.45;;;11.50;99.90;;;;;;4965029;28;20061;-63
2023/05/28 04:28:02;;;;;;;10.10;3.70;;;11.50;99.90;;;;;;4964551;28;20615;-65
2023/05/28 04:30:29;;;;;;;15.70;4.55;;;11.50;99.90;;;;;;4979112;28;20120;-62
2023/05/28 04:32:57;;;;;;;11.68;4.60;;;11.60;99.90;;;;;;4965830;28;20050;-66
2023/05/28 04:35:26;;;;;;;10.23;4.03;;;11.60;99.90;;;;;;4960823;28;20722;-61
2023/05/28 04:37:53;;;;;;;12.30;3.72;;;11.70;99.90;;;;;;4966827;28;20058;-64
2023/05/28 04:40:21;;;;;;;8.88;4.53;;;11.70;99.90;;;;;;4963950;28;20594;-67
2023/05/28 04:42:48;;;;;;;9.85;2.50;;;11.80;99.90;;;;;;4979601;28;20130;-63
2023/05/28 04:45:16;;;;;;;13.70;3.50;;;11.80;99.90;;;;;;4964222;28;20062;-61
2023/05/28 04:47:45;;;;;;;13.70;3.45;;;11.80;99.90;;;;;;4983485;28;20067;-68
2023/05/28 04:50:12;;;;;;;12.52;3.30;;;11.90;99.90;;;;;;4961478;28;20055;-63
2023/05/28 04:52:39;;;;;;;8.02;4.18;;;12.00;99.90;;;;;;4967296;28;20169;-71
2023/05/28 04:55:06;;;;;;;8.50;3.97;;;12.00;99.90;;;;;;4955829;28;20137;-61
2023/05/28 04:57:33;;;;;;;10.13;3.60;;;12.10;99.90;;;;;;4980271;28;20046;-64
2023/05/28 05:00:02;;;;;;;10.77;3.70;;;12.10;99.90;;;;;;4978713;28;20137;-65
2023/05/28 05:02:29;;;;;;;8.63;3.85;;;12.20;99.90;;;;;;4978040;28;20065;-62
2023/05/28 05:04:56;;;;;;;5.75;3.33;;;12.30;99.90;;;;;;4978289;28;20519;-65
2023/05/28 05:07:24;;;;;;;10.88;3.05;;;12.40;99.90;;;;;;4965119;28;20117;-62
2023/05/28 05:09:51;;;;;;;11.05;4.13;;;12.40;99.90;;;;;;4963513;28;20374;-61
2023/05/28 05:12:18;;;;;;;9.55;5.47;;;12.50;99.90;;;;;;4966811;28;20539;-62
2023/05/28 05:14:45;;;;;;;11.95;4.00;;;12.60;99.90;;;;;;4964973;28;20808;-62
2023/05/28 05:17:12;;;;;;;8.27;4.10;;;12.70;99.90;;;;;;4962803;28;20070;-66
2023/05/28 05:19:39;;;;;;;13.35;4.40;;;12.80;99.90;;;;;;4962443;28;20086;-69
2023/05/28 05:22:07;;;;;;;13.38;4.25;;;12.90;99.90;;;;;;4963100;28;20061;-61
2023/05/28 05:24:35;;;;;;;11.20;4.20;;;13.00;99.90;;;;;;4956483;28;20065;-62
2023/05/28 05:27:02;;;;;;;10.70;3.30;;;13.10;99.90;;;;;;4962011;28;20062;-61
2023/05/28 05:29:29;;;;;;;11.13;3.83;;;13.20;99.90;;;;;;4976938;28;20055;-65
2023/05/28 05:31:57;;;;;;;8.48;3.60;;;13.30;99.90;;;;;;4978013;28;20042;-62
2023/05/28 05:34:25;;;;;;;7.57;3.08;;;13.40;99.90;;;;;;4962863;28;20395;-68
2023/05/28 05:37:21;;;;;;;25.40;4.30;;;13.50;99.90;;;;;;4966065;28;20051;-65
2023/05/28 05:40:08;;;;;;;8.10;3.80;;;13.50;99.90;;;;;;4962391;28;20077;-64
2023/05/28 05:43:02;;;;;;;13.80;4.72;;;13.60;99.90;;;;;;4960799;28;20416;-65
2023/05/28 05:45:29;;;;;;;11.93;4.15;;;13.60;99.90;;;;;;4975815;28;20153;-63
2023/05/28 05:47:56;;;;;;;10.68;4.30;;;13.70;99.90;;;;;;4963770;28;20086;-61
2023/05/28 05:50:23;;;;;;;23.63;4.28;;;13.90;99.90;;;;;;4963904;28;20066;-65
2023/05/28 05:52:50;;;;;;;8.07;2.92;;;14.00;99.90;;;;;;4963647;28;20500;-65
2023/05/28 05:55:17;;;;;;;11.85;3.88;;;14.10;99.90;;;;;;4958285;28;20043;-65
2023/05/28 05:57:45;;;;;;;13.10;4.13;;;14.20;99.90;;;;;;4963677;28;20496;-64
2023/05/28 06:00:13;;;;;;;8.10;4.18;;;14.30;99.90;;;;;;4944863;28;20047;-64
2023/05/28 06:02:41;;;;;;;7.75;3.65;;;14.40;99.90;;;;;;4969046;28;20047;-65
2023/05/28 06:05:27;;;;;;;8.07;3.20;;;14.50;99.90;;;;;;4962524;28;20058;-63
2023/05/28 06:08:24;;;;;;;12.82;4.03;;;14.70;99.90;;;;;;4948808;28;20467;-67
2023/05/28 06:10:58;;;;;;;11.68;4.10;;;14.70;99.90;;;;;;4961536;28;20047;-65
2023/05/28 06:13:25;;;;;;;13.75;4.18;;;14.80;99.90;;;;;;4965774;28;20493;-61
2023/05/28 06:15:52;;;;;;;14.30;4.13;;;14.80;99.90;;;;;;4962738;28;20057;-67
2023/05/28 06:18:21;;;;;;;7.60;3.47;;;14.90;99.90;;;;;;4963103;28;20054;-61
2023/05/28 06:20:49;;;;;;;10.60;4.28;;;15.00;99.90;;;;;;4963440;28;20055;-66
2023/05/28 06:23:17;;;;;;;13.32;4.57;;;15.00;99.90;;;;;;4978764;28;20059;-66
2023/05/28 06:25:44;;;;;;;13.38;4.97;;;15.00;99.90;;;;;;4978024;28;20049;-65
2023/05/28 06:28:11;;;;;;;6.80;3.00;;;15.00;99.90;;;;;;4962502;28;20063;-66
2023/05/28 06:30:39;;;;;;;13.75;3.95;;;15.00;99.90;;;;;;4979151;28;20062;-64
2023/05/28 06:33:08;;;;;;;11.02;3.67;;;14.90;99.90;;;;;;4961985;28;20489;-66
2023/05/28 06:35:35;;;;;;;9.55;3.95;;;15.00;99.90;;;;;;4977539;28;20051;-62
2023/05/28 06:38:03;;;;;;;9.65;3.80;;;15.00;99.90;;;;;;4966811;28;20069;-68
2023/05/28 06:40:30;;;;;;;9.57;3.53;;;15.00;99.90;;;;;;4961298;28;20139;-62
2023/05/28 06:43:00;;;;;;;9.30;3.33;;;15.10;99.90;;;;;;4964286;28;20050;-65
2023/05/28 06:45:44;;;;;;;14.05;4.10;;;15.30;99.90;;;;;;4955043;28;20054;-70
2023/05/28 06:48:12;;;;;;;9.32;2.85;;;15.20;99.90;;;;;;4974906;28;20062;-63
2023/05/28 06:50:39;;;;;;;11.60;4.57;;;15.20;99.90;;;;;;4958502;28;20464;-63
2023/05/28 06:53:07;;;;;;;14.77;4.45;;;15.30;99.90;;;;;;4956152;28;20054;-62
2023/05/28 06:55:34;;;;;;;8.40;3.33;;;15.40;99.90;;;;;;4960189;28;20565;-61
2023/05/28 06:58:19;;;;;;;8.50;3.13;;;15.50;99.90;;;;;;4961788;28;20129;-60
2023/05/28 07:01:05;;;;;;;13.77;3.55;;;15.40;99.90;;;;;;4962654;28;20054;-63
2023/05/28 07:03:55;;;;;;;11.30;4.73;;;15.40;99.90;;;;;;4957849;28;20441;-63
2023/05/28 07:06:35;;;;;;;12.57;4.07;;;15.50;99.90;;;;;;4968133;28;20285;-61
2023/05/28 07:09:03;;;;;;;9.10;4.03;;;15.30;99.90;;;;;;4963282;28;20063;-63
2023/05/28 07:11:31;;;;;;;7.97;2.72;;;15.10;99.90;;;;;;4962235;28;20058;-63
2023/05/28 07:13:58;;;;;;;8.35;3.85;;;14.90;99.90;;;;;;4959563;28;20070;-69
2023/05/28 07:16:25;;;;;;;10.07;4.00;;;14.80;99.90;;;;;;4968972;28;20047;-63
2023/05/28 07:18:52;;;;;;;12.00;4.65;;;14.80;99.90;;;;;;4961063;28;20058;-69
2023/05/28 07:21:20;;;;;;;7.85;3.28;;;14.70;99.90;;;;;;4962473;28;20648;-63
2023/05/28 07:23:47;;;;;;;11.20;3.80;;;14.60;99.90;;;;;;4961770;28;20517;-63
2023/05/28 07:26:15;;;;;;;8.93;3.50;;;14.60;99.90;;;;;;4958809;28;20064;-65
2023/05/28 07:28:41;;;;;;;10.82;2.90;;;14.40;99.90;;;;;;4965398;28;20054;-62
2023/05/28 07:31:08;;;;;;;13.25;3.28;;;14.20;99.90;;;;;;4960811;28;20086;-63
2023/05/28 07:33:35;;;;;;;8.20;3.58;;;14.20;99.90;;;;;;4961244;28;20113;-64
2023/05/28 07:36:03;;;;;;;7.53;3.05;;;14.30;99.90;;;;;;4957562;28;20045;-62
2023/05/28 07:38:32;;;;;;;13.52;4.70;;;14.40;99.90;;;;;;4963622;28;20047;-60
2023/05/28 07:41:00;;;;;;;10.55;4.28;;;14.40;99.90;;;;;;4961727;28;20773;-65
2023/05/28 07:43:32;;;;;;;7.88;2.88;;;14.60;99.90;;;;;;4978682;28;20070;-64
2023/05/28 07:46:05;;;;;;;7.57;3.97;;;14.70;99.90;;;;;;4974101;28;20062;-66
2023/05/28 07:48:43;;;;;;;6.75;3.47;;;14.60;99.90;;;;;;4965321;28;20147;-66
2023/05/28 07:51:20;;;;;;;10.88;3.97;;;14.70;99.90;;;;;;4963643;28;20086;-60
2023/05/28 07:53:58;;;;;;;15.20;3.80;;;14.80;99.90;;;;;;4967363;28;20058;-65
2023/05/28 07:56:26;;;;;;;9.80;3.30;;;14.80;99.90;;;;;;4968981;28;20086;-71
2023/05/28 07:58:53;;;;;;;14.45;6.10;;;14.90;99.90;;;;;;4968114;28;20069;-69
2023/05/28 08:01:20;;;;;;;7.88;3.30;;;15.00;99.90;;;;;;4967902;28;20061;-63
2023/05/28 08:03:50;;;;;;;8.90;3.30;;;15.10;99.90;;;;;;4966341;28;20062;-65
2023/05/28 08:06:21;;;;;;;8.95;4.18;;;15.20;99.90;;;;;;4961489;28;20081;-64
2023/05/28 08:08:48;;;;;;;10.35;5.45;;;15.40;99.90;;;;;;4968873;28;20121;-66
2023/05/28 08:11:16;;;;;;;9.60;3.85;;;15.50;99.90;;;;;;4981927;28;20047;-63
2023/05/28 08:13:43;;;;;;;12.18;4.28;;;15.50;99.90;;;;;;4967016;28;20105;-69
2023/05/28 08:16:11;;;;;;;7.47;4.30;;;15.70;99.90;;;;;;4958699;28;20114;-61
2023/05/28 08:18:59;;;;;;;9.25;5.55;;;15.80;99.90;;;;;;4965782;28;20054;-68
2023/05/28 08:21:27;;;;;;;15.75;5.32;;;15.90;99.90;;;;;;4977797;28;21016;-62
2023/05/28 08:23:57;;;;;;;8.32;3.58;;;15.90;99.90;;;;;;4964562;28;20050;-62
2023/05/28 08:26:24;;;;;;;10.35;4.50;;;16.00;99.90;;;;;;4964665;28;20425;-62
2023/05/28 08:28:51;;;;;;;9.68;4.03;;;16.10;99.90;;;;;;4965368;28;20055;-62
2023/05/28 08:31:18;;;;;;;8.18;5.35;;;16.10;99.90;;;;;;4965671;28;20054;-68
2023/05/28 08:33:54;;;;;;;13.95;4.22;;;16.20;99.90;;;;;;4976391;28;20061;-61
2023/05/28 08:36:22;;;;;;;13.82;4.30;;;16.10;99.90;;;;;;4962988;28;20055;-61
2023/05/28 08:38:53;;;;;;;12.20;4.28;;;16.20;99.90;;;;;;4966852;28;20492;-69
2023/05/28 08:41:21;;;;;;;12.82;4.85;;;16.20;99.90;;;;;;4978498;28;20063;-64
2023/05/28 08:43:50;;;;;;;12.15;4.25;;;16.10;99.90;;;;;;4959525;28;20086;-65
2023/05/28 08:46:19;;;;;;;19.20;4.93;;;16.10;99.90;;;;;;4963087;28;20109;-63
2023/05/28 08:49:17;;;;;;;7.18;4.50;;;16.10;99.90;;;;;;4981193;28;20043;-60
2023/05/28 08:51:52;;;;;;;8.05;4.90;;;16.10;99.90;;;;;;4979363;28;20050;-64
2023/05/28 08:54:22;;;;;;;15.32;4.25;;;16.30;99.90;;;;;;4962371;28;20141;-67
2023/05/28 08:56:52;;;;;;;10.73;4.55;;;16.50;99.90;;;;;;4964617;28;20053;-65
2023/05/28 08:59:20;;;;;;;9.55;4.47;;;16.50;99.90;;;;;;4964565;28;21164;-61
2023/05/28 09:01:48;;;;;;;8.45;4.20;;;16.70;99.90;;;;;;4965308;28;20066;-61
2023/05/28 09:04:19;;;;;;;13.60;5.00;;;16.90;99.90;;;;;;4963304;28;20140;-61
2023/05/28 09:06:48;;;;;;;8.13;3.75;;;17.00;99.90;;;;;;4964103;28;20077;-62
2023/05/28 09:09:26;;;;;;;8.15;4.10;;;17.20;99.90;;;;;;4964979;28;20063;-67
2023/05/28 09:12:07;;;;;;;18.77;3.87;;;17.30;99.90;;;;;;4982099;28;20050;-62
2023/05/28 09:14:39;;;;;;;6.70;4.03;;;17.10;99.90;;;;;;4973496;28;20288;-63
2023/05/28 09:17:09;;;;;;;15.20;4.95;;;17.00;99.90;;;;;;4970085;28;20166;-65
2023/05/28 09:19:51;;;;;;;9.70;5.10;;;16.90;99.90;;;;;;4977989;28;20047;-67
2023/05/28 09:22:19;;;;;;;7.35;4.00;;;16.80;99.90;;;;;;4963126;28;20424;-62
2023/05/28 09:25:00;;;;;;;10.45;5.85;;;16.70;99.90;;;;;;4960144;28;20039;-64
2023/05/28 09:27:36;;;;;;;13.05;4.82;;;16.70;99.90;;;;;;4970472;28;20113;-64
2023/05/28 09:30:12;;;;;;;9.10;4.00;;;17.00;99.90;;;;;;4960835;28;20059;-65
2023/05/28 09:32:40;;;;;;;16.85;4.35;;;17.00;99.90;;;;;;4964962;28;20061;-69
2023/05/28 09:35:08;;;;;;;11.05;4.40;;;17.10;99.90;;;;;;4962493;28;20046;-62
2023/05/28 09:37:39;;;;;;;10.55;5.60;;;17.30;99.90;;;;;;4966453;28;20050;-60
2023/05/28 09:40:10;;;;;;;10.73;4.18;;;17.10;99.90;;;;;;4957716;28;20043;-62
2023/05/28 09:42:43;;;;;;;6.32;4.88;;;17.00;99.90;;;;;;4963448;28;20093;-64
2023/05/28 09:45:11;;;;;;;8.55;3.70;;;16.90;99.90;;;;;;4964225;28;20114;-64
2023/05/28 09:47:43;;;;;;;9.75;4.82;;;16.90;99.90;;;;;;4962946;28;20141;-60
2023/05/28 09:50:11;;;;;;;9.13;4.07;;;16.70;99.90;;;;;;4960714;28;20074;-64
2023/05/28 09:52:41;;;;;;;12.60;4.95;;;16.50;99.90;;;;;;4962154;28;20344;-69
2023/05/28 09:55:10;;;;;;;;;;;16.70;99.90;;;;;;4966394;28;20509;-64
2023/05/28 09:57:44;;;;;;;12.73;3.97;;;16.80;99.90;;;;;;4963615;28;19960;-61
2023/05/28 10:00:22;;;;;;;10.70;4.43;;;17.00;99.90;;;;;;4963267;28;20118;-68
2023/05/28 10:02:58;;;;;;;8.15;5.40;;;17.10;99.90;;;;;;4964414;28;20404;-65
2023/05/28 10:05:31;;;;;;;11.82;3.80;;;17.40;99.90;;;;;;4962375;28;20046;-61
2023/05/28 10:08:00;;;;;;;10.00;4.25;;;17.50;99.90;;;;;;4965207;28;20046;-65
2023/05/28 10:10:28;;;;;;;10.32;4.60;;;17.50;99.90;;;;;;4963039;28;20054;-65
2023/05/28 10:12:57;;;;;;;11.48;5.53;;;17.70;99.90;;;;;;4965286;28;20055;-67
2023/05/28 10:15:25;;;;;;;6.72;4.13;;;17.70;99.90;;;;;;4965729;28;20073;-61
2023/05/28 10:17:52;;;;;;;10.73;4.45;;;17.70;99.90;;;;;;4963282;28;20075;-65
2023/05/28 10:20:19;;;;;;;5.53;3.17;;;17.70;99.90;;;;;;4961223;28;20046;-62
2023/05/28 10:22:48;;;;;;;15.02;4.65;;;17.60;99.90;;;;;;4964235;28;20078;-62
2023/05/28 10:25:15;;;;;;;17.33;5.47;;;17.50;99.90;;;;;;4963291;28;20054;-64
2023/05/28 10:27:45;;;;;;;10.45;3.67;;;17.40;99.90;;;;;;4964058;28;20059;-70
2023/05/28 10:30:12;;;;;;;9.68;4.13;;;17.30;99.90;;;;;;4963062;28;20054;-62
2023/05/28 10:32:41;;;;;;;8.43;4.05;;;17.30;99.90;;;;;;4964316;28;20042;-61
2023/05/28 10:35:12;;;;;;;6.10;3.03;;;17.20;99.90;;;;;;4973294;28;20057;-61
2023/05/28 10:37:39;;;;;;;11.52;3.92;;;17.20;99.90;;;;;;4978564;28;20061;-66
2023/05/28 10:40:09;;;;;;;13.20;4.70;;;17.00;99.90;;;;;;4962246;28;20077;-62
2023/05/28 10:42:41;;;;;;;9.07;3.75;;;17.10;99.90;;;;;;4964000;28;20440;-62
2023/05/28 10:45:10;;;;;;;5.63;4.28;;;17.20;99.90;;;;;;4963166;28;20330;-66
2023/05/28 10:47:41;;;;;;;8.45;4.45;;;17.30;99.90;;;;;;4963853;28;20201;-60
2023/05/28 10:50:08;;;;;;;6.68;4.65;;;17.50;99.90;;;;;;4958399;28;20832;-68
2023/05/28 10:53:06;;;;;;;6.38;3.80;;;17.60;99.90;;;;;;4960362;28;20046;-65
2023/05/28 10:55:53;;;;;;;10.50;4.93;;;17.80;99.90;;;;;;4961233;28;20125;-67
2023/05/28 10:58:32;;;;;;;7.18;4.15;;;17.80;99.90;;;;;;4960117;28;20059;-61
2023/05/28 11:01:12;;;;;;;9.95;4.43;;;17.80;99.90;;;;;;4959113;28;20047;-67
2023/05/28 11:03:43;;;;;;;9.65;4.47;;;17.80;99.90;;;;;;4962521;28;20046;-62
2023/05/28 11:06:11;;;;;;;6.20;3.83;;;17.80;99.90;;;;;;4960707;28;20065;-62
2023/05/28 11:08:44;;;;;;;6.60;3.95;;;17.70;99.90;;;;;;4959256;28;20117;-63
2023/05/28 11:11:13;;;;;;;10.82;4.13;;;17.70;99.90;;;;;;4961930;28;20490;-62
2023/05/28 11:13:45;;;;;;;8.98;4.20;;;17.90;99.90;;;;;;4962170;28;20153;-64
2023/05/28 11:16:14;;;;;;;6.20;2.92;;;18.00;99.90;;;;;;4960816;28;20065;-62
2023/05/28 11:19:03;;;;;;;7.47;5.15;;;18.10;99.90;;;;;;4962076;28;20139;-68
2023/05/28 11:21:32;;;;;;;7.25;3.10;;;18.20;99.90;;;;;;4958079;28;20105;-64
2023/05/28 11:24:04;;;;;;;8.27;3.67;;;18.30;99.90;;;;;;4960805;28;20054;-61
2023/05/28 11:26:32;;;;;;;5.10;2.58;;;18.20;99.90;;;;;;4961479;28;20039;-60
2023/05/28 11:29:00;;;;;;;6.63;2.25;;;18.20;99.80;;;;;;4965737;28;20054;-61
2023/05/28 11:31:28;;;;;;;7.30;2.60;;;18.20;98.90;;;;;;4963412;28;20061;-64
2023/05/28 11:33:56;;;;;;;8.80;2.97;;;18.20;99.30;;;;;;4965145;28;20055;-65
2023/05/28 11:36:23;;;;;;;7.43;2.75;;;18.10;99.90;;;;;;4961017;28;20792;-65
2023/05/28 11:39:03;;;;;;;7.75;3.65;;;18.20;99.90;;;;;;4966029;28;20054;-61
2023/05/28 11:41:31;;;;;;;;;;;18.30;99.70;;;;;;4966460;28;20050;-61
2023/05/28 11:43:58;;;;;;;5.93;2.92;;;18.40;99.90;;;;;;4962885;28;20021;-67
2023/05/28 11:46:24;;;;;;;7.22;2.95;;;18.40;99.80;;;;;;4965086;28;20677;-61
2023/05/28 11:48:52;;;;;;;4.60;3.08;;;18.50;99.90;;;;;;4967196;28;20402;-63
2023/05/28 11:51:20;;;;;;;6.20;2.65;;;18.60;99.60;;;;;;4964341;28;20062;-67
2023/05/28 11:53:47;;;;;;;6.43;2.40;;;18.50;99.20;;;;;;4966644;28;20093;-69
2023/05/28 11:56:14;;;;;;;5.18;3.15;;;18.50;99.30;;;;;;4966288;28;20618;-60
2023/05/28 11:58:48;;;;;;;4.97;2.85;;;18.40;99.80;;;;;;4962044;28;20050;-65
2023/05/28 12:01:16;;;;;;;4.03;2.22;;;18.30;99.90;;;;;;4963821;28;20047;-64
2023/05/28 12:03:43;;;;;;;7.00;3.03;;;18.40;99.90;;;;;;4963817;28;20047;-67
2023/05/28 12:06:11;;;;;;;7.10;2.70;;;18.50;99.90;;;;;;4961765;28;20117;-65
2023/05/28 12:08:46;;;;;;;3.80;3.03;;;18.60;99.90;;;;;;4965525;28;20062;-63
2023/05/28 12:11:13;;;;;;;6.03;2.83;;;18.80;99.90;;;;;;4967211;28;20054;-69
2023/05/28 12:13:40;;;;;;;4.95;4.03;;;18.90;99.50;;;;;;4966415;28;20058;-65
2023/05/28 12:16:07;;;;;;;3.90;2.60;;;18.90;99.60;;;;;;4966905;28;20146;-64
2023/05/28 12:18:38;;;;;;;4.35;2.55;;;19.00;99.40;;;;;;4965736;28;20171;-66
2023/05/28 12:21:09;;;;;;;8.35;3.08;;;19.00;99.80;;;;;;4963027;28;20050;-64
2023/05/28 12:23:36;;;;;;;10.18;2.92;;;19.10;99.20;;;;;;4970938;28;20302;-63
2023/05/28 12:26:03;;;;;;;7.60;3.25;;;19.10;98.50;;;;;;4963416;28;20086;-64
2023/05/28 12:28:31;;;;;;;7.10;3.75;;;19.10;99.10;;;;;;4960492;28;20050;-61
2023/05/28 12:30:58;;;;;;;6.13;3.03;;;19.20;98.40;;;;;;4964325;28;20059;-62
2023/05/28 12:33:26;;;;;;;4.70;2.70;;;19.20;98.10;;;;;;4966347;28;20059;-66
2023/05/28 12:35:53;;;;;;;6.70;2.85;;;19.10;98.20;;;;;;4965046;28;20058;-63
2023/05/28 12:38:20;;;;;;;2.60;2.28;;;19.10;97.20;;;;;;4964667;28;21269;-69
2023/05/28 12:40:49;;;;;;;6.85;2.22;;;19.10;96.80;;;;;;4962681;28;20065;-63
2023/05/28 12:43:16;;;;;;;3.42;2.88;;;19.20;97.20;;;;;;4964978;28;20054;-65
2023/05/28 12:45:43;;;;;;;6.28;2.47;;;19.40;97.10;;;;;;4966724;28;20072;-68
2023/05/28 12:48:10;;;;;;;7.63;2.80;;;19.60;95.80;;;;;;4963904;28;20089;-64
2023/05/28 12:50:37;;;;;;;2.75;1.75;;;19.70;95.50;;;;;;4962933;28;20050;-67
2023/05/28 12:53:04;;;;;;;2.22;1.60;;;19.70;95.70;;;;;;4964859;28;20114;-66
2023/05/28 12:55:34;;;;;;;4.38;2.00;;;20.10;95.00;;;;;;4965048;28;20047;-66